createdAt,value
2018-09-02T00:01:46.471Z,66.11
2018-09-02T00:04:16.486Z,66.87
2018-09-02T00:06:46.516Z,66.88
2018-09-02T00:09:18.222Z,67.13
2018-09-02T00:11:48.745Z,66.79
2018-09-02T00:14:19.250Z,67.55
2018-09-02T00:16:48.654Z,68.16
2018-09-02T00:19:17.550Z,68.39
2018-09-02T00:21:47.108Z,67.73
2018-09-02T00:24:16.467Z,68.03
2018-09-02T00:26:46.046Z,68.51
2018-09-02T00:29:15.435Z,68.83
2018-09-02T00:31:45.089Z,68.84
2018-09-02T00:34:14.236Z,68.71
2018-09-02T00:36:44.405Z,68.48
2018-09-02T00:39:14.548Z,68.98
2018-09-02T00:41:43.644Z,68.19
2018-09-02T00:44:13.078Z,68.76
2018-09-02T00:46:43.381Z,69.14
2018-09-02T00:49:12.407Z,68.72
2018-09-02T00:51:43.997Z,69.85
2018-09-02T00:54:13.251Z,70.14
2018-09-02T00:56:43.486Z,70.04
2018-09-02T00:59:12.824Z,70.47
2018-09-02T01:01:42.304Z,69.82
2018-09-02T01:04:11.294Z,69.74
2018-09-02T01:06:40.925Z,69.34
2018-09-02T01:09:10.411Z,69.88
2018-09-02T01:11:40.739Z,69.71
2018-09-02T01:14:10.125Z,70.30
2018-09-02T01:16:39.190Z,70.78
2018-09-02T01:19:09.312Z,70.59
2018-09-02T01:21:39.000Z,71.38
2018-09-02T01:24:08.123Z,70.71
2018-09-02T01:26:37.478Z,70.40
2018-09-02T01:29:06.954Z,71.71
2018-09-02T01:31:36.813Z,71.50
2018-09-02T01:34:06.805Z,71.05
2018-09-02T01:36:36.693Z,72.00
2018-09-02T01:39:06.637Z,72.25
2018-09-02T01:41:35.662Z,72.18
2018-09-02T01:44:06.386Z,72.16
2018-09-02T01:46:35.840Z,72.21
2018-09-02T01:49:05.501Z,71.85
2018-09-02T01:51:34.921Z,72.81
2018-09-02T01:54:04.162Z,71.86
2018-09-02T01:56:34.329Z,73.03
2018-09-02T01:59:03.104Z,72.97
2018-09-02T02:01:32.243Z,72.91
2018-09-02T02:04:02.360Z,72.65
2018-09-02T02:06:31.450Z,73.17
2018-09-02T02:09:00.545Z,73.40
2018-09-02T02:11:29.903Z,73.21
2018-09-02T02:13:59.916Z,73.66
2018-09-02T02:16:30.444Z,73.39
2018-09-02T02:18:59.717Z,73.02
2018-09-02T02:21:29.001Z,73.52
2018-09-02T02:23:58.005Z,73.55
2018-09-02T02:26:26.970Z,73.33
2018-09-02T02:28:56.452Z,73.06
2018-09-02T02:31:26.410Z,72.86
2018-09-02T02:33:56.541Z,73.03
2018-09-02T02:36:26.048Z,73.80
2018-09-02T02:38:55.140Z,74.17
2018-09-02T02:41:24.933Z,74.04
2018-09-02T02:43:54.590Z,73.25
2018-09-02T02:46:24.032Z,74.14
2018-09-02T02:48:53.070Z,73.58
2018-09-02T02:51:22.843Z,74.21
2018-09-02T02:53:51.753Z,73.97
2018-09-02T02:56:21.967Z,73.80
2018-09-02T02:58:51.042Z,73.06
2018-09-02T03:01:20.917Z,73.56
2018-09-02T03:03:50.619Z,73.75
2018-09-02T03:06:21.506Z,73.71
2018-09-02T03:08:50.803Z,74.43
2018-09-02T03:11:20.655Z,73.72
2018-09-02T03:13:50.338Z,74.83
2018-09-02T03:16:19.755Z,74.98
2018-09-02T03:18:50.226Z,74.48
2018-09-02T03:21:20.196Z,75.07
2018-09-02T03:23:49.425Z,73.95
2018-09-02T03:26:18.724Z,74.86
2018-09-02T03:28:47.737Z,74.65
2018-09-02T03:31:18.691Z,74.45
2018-09-02T03:33:48.275Z,74.82
2018-09-02T03:36:18.555Z,75.14
2018-09-02T03:38:47.985Z,75.55
2018-09-02T03:41:17.388Z,75.40
2018-09-02T03:43:46.719Z,75.43
2018-09-02T03:46:16.736Z,75.51
2018-09-02T03:48:47.318Z,75.68
2018-09-02T03:51:16.812Z,75.09
2018-09-02T03:53:47.562Z,76.13
2018-09-02T03:56:17.027Z,75.88
2018-09-02T03:58:47.097Z,76.29
2018-09-02T04:01:16.666Z,76.21
2018-09-02T04:03:48.113Z,76.70
2018-09-02T04:06:17.731Z,75.87
2018-09-02T04:08:49.198Z,75.89
2018-09-02T04:11:20.489Z,75.81
2018-09-02T04:13:49.610Z,75.93
2018-09-02T04:16:19.018Z,76.20
2018-09-02T04:18:49.229Z,75.89
2018-09-02T04:21:18.894Z,76.39
2018-09-02T04:23:48.426Z,76.96
2018-09-02T04:26:17.869Z,76.75
2018-09-02T04:28:46.814Z,76.50
2018-09-02T04:31:16.363Z,76.76
2018-09-02T04:33:45.548Z,77.01
2018-09-02T04:36:14.836Z,75.70
2018-09-02T04:38:43.814Z,76.32
2018-09-02T04:41:13.440Z,77.21
2018-09-02T04:43:42.421Z,76.45
2018-09-02T04:46:12.150Z,76.97
2018-09-02T04:48:41.812Z,76.40
2018-09-02T04:51:11.736Z,76.24
2018-09-02T04:53:40.970Z,76.62
2018-09-02T04:56:10.782Z,75.93
2018-09-02T04:58:39.814Z,76.29
2018-09-02T05:01:10.302Z,77.25
2018-09-02T05:03:40.317Z,77.39
2018-09-02T05:06:09.559Z,77.56
2018-09-02T05:08:39.166Z,77.69
2018-09-02T05:11:08.861Z,76.93
2018-09-02T05:13:38.572Z,77.41
2018-09-02T05:16:07.567Z,77.73
2018-09-02T05:18:36.938Z,76.92
2018-09-02T05:21:05.903Z,76.87
2018-09-02T05:23:35.274Z,77.86
2018-09-02T05:26:04.775Z,77.67
2018-09-02T05:28:33.694Z,77.74
2018-09-02T05:31:04.314Z,77.49
2018-09-02T05:33:33.338Z,77.34
2018-09-02T05:36:03.041Z,77.51
2018-09-02T05:38:32.436Z,77.67
2018-09-02T05:41:01.443Z,77.69
2018-09-02T05:43:30.744Z,77.99
2018-09-02T05:46:00.494Z,78.53
2018-09-02T05:48:29.997Z,76.85
2018-09-02T05:51:00.315Z,77.67
2018-09-02T05:53:29.984Z,77.90
2018-09-02T05:56:00.102Z,77.64
2018-09-02T05:58:29.794Z,77.47
2018-09-02T06:00:58.645Z,77.32
2018-09-02T06:03:27.823Z,77.68
2018-09-02T06:05:58.595Z,77.98
2018-09-02T06:08:28.198Z,77.91
2018-09-02T06:10:58.949Z,78.21
2018-09-02T06:13:28.021Z,77.74
2018-09-02T06:15:58.148Z,77.64
2018-09-02T06:18:28.203Z,77.77
2018-09-02T06:20:58.863Z,76.49
2018-09-02T06:23:28.229Z,76.98
2018-09-02T06:26:04.731Z,76.39
2018-09-02T06:28:34.033Z,77.12
2018-09-02T06:31:04.278Z,77.24
2018-09-02T06:33:35.172Z,78.37
2018-09-02T06:36:04.522Z,77.26
2018-09-02T06:38:34.505Z,77.48
2018-09-02T06:41:03.467Z,77.79
2018-09-02T06:43:32.585Z,77.01
2018-09-02T06:46:03.154Z,77.29
2018-09-02T06:48:32.651Z,77.67
2018-09-02T06:51:02.602Z,78.91
2018-09-02T06:53:31.910Z,77.60
2018-09-02T06:56:02.449Z,77.74
2018-09-02T06:58:31.782Z,77.46
2018-09-02T07:01:00.987Z,76.77
2018-09-02T07:03:31.488Z,76.12
2018-09-02T07:06:01.322Z,76.37
2018-09-02T07:08:31.468Z,77.50
2018-09-02T07:11:01.313Z,77.11
2018-09-02T07:13:31.126Z,77.47
2018-09-02T07:16:01.135Z,76.11
2018-09-02T07:18:32.110Z,77.25
2018-09-02T07:21:03.382Z,77.87
2018-09-02T07:23:33.475Z,76.92
2018-09-02T07:26:02.596Z,77.65
2018-09-02T07:28:34.940Z,77.60
2018-09-02T07:31:06.849Z,78.94
2018-09-02T07:33:36.399Z,78.99
2018-09-02T07:36:05.799Z,77.60
2018-09-02T07:38:35.157Z,76.92
2018-09-02T07:41:04.334Z,77.41
2018-09-02T07:43:35.351Z,77.98
2018-09-02T07:46:05.673Z,77.12
2018-09-02T07:48:35.324Z,78.14
2018-09-02T07:51:04.538Z,76.95
2018-09-02T07:53:34.729Z,76.32
2018-09-02T07:56:04.511Z,76.81
2018-09-02T07:58:33.598Z,75.37
2018-09-02T08:01:03.646Z,74.25
2018-09-02T08:03:32.692Z,75.10
2018-09-02T08:06:02.487Z,75.67
2018-09-02T08:08:32.558Z,74.36
2018-09-02T08:11:02.497Z,74.93
2018-09-02T08:13:34.395Z,73.38
2018-09-02T08:16:04.469Z,73.69
2018-09-02T08:18:33.642Z,74.32
2018-09-02T08:21:03.644Z,73.30
2018-09-02T08:23:33.483Z,74.36
2018-09-02T08:26:04.520Z,75.84
2018-09-02T08:28:33.831Z,74.82
2018-09-02T08:31:03.246Z,74.23
2018-09-02T08:33:32.822Z,73.69
2018-09-02T08:36:02.669Z,74.89
2018-09-02T08:38:33.196Z,74.47
2018-09-02T08:41:02.904Z,74.37
2018-09-02T08:43:31.943Z,73.91
2018-09-02T08:46:01.008Z,73.64
2018-09-02T08:48:29.989Z,73.56
2018-09-02T08:51:00.181Z,75.07
2018-09-02T08:53:29.591Z,74.87
2018-09-02T08:55:58.945Z,76.58
2018-09-02T08:58:28.523Z,74.83
2018-09-02T09:00:59.034Z,74.53
2018-09-02T09:03:28.742Z,75.43
2018-09-02T09:05:57.871Z,74.91
2018-09-02T09:08:28.588Z,75.42
2018-09-02T09:11:00.019Z,74.13
2018-09-02T09:13:30.222Z,75.17
2018-09-02T09:16:00.119Z,74.26
2018-09-02T09:18:29.699Z,74.57
2018-09-02T09:20:59.701Z,74.81
2018-09-02T09:23:29.327Z,74.08
2018-09-02T09:25:58.796Z,73.17
2018-09-02T09:28:29.126Z,73.23
2018-09-02T09:30:59.398Z,73.42
2018-09-02T09:33:29.135Z,74.95
2018-09-02T09:35:58.749Z,71.92
2018-09-02T09:38:29.961Z,74.00
2018-09-02T09:41:00.022Z,73.10
2018-09-02T09:43:29.790Z,73.92
2018-09-02T09:45:59.393Z,74.32
2018-09-02T09:48:28.624Z,74.33
2018-09-02T09:50:58.404Z,74.16
2018-09-02T09:53:27.944Z,73.37
2018-09-02T09:55:57.303Z,73.48
2018-09-02T09:58:27.098Z,74.39
2018-09-02T10:00:56.347Z,73.38
2018-09-02T10:03:27.183Z,73.13
2018-09-02T10:05:56.946Z,72.32
2018-09-02T10:08:26.905Z,74.13
2018-09-02T10:10:57.273Z,74.14
2018-09-02T10:13:26.850Z,75.90
2018-09-02T10:15:56.333Z,76.47
2018-09-02T10:18:25.758Z,77.99
2018-09-02T10:20:55.884Z,78.91
2018-09-02T10:23:25.531Z,79.83
2018-09-02T10:25:55.182Z,79.57
2018-09-02T10:28:24.454Z,81.14
2018-09-02T10:30:54.123Z,81.88
2018-09-02T10:33:24.544Z,81.96
2018-09-02T10:35:54.971Z,81.75
2018-09-02T10:38:24.207Z,79.65
2018-09-02T10:40:54.403Z,80.93
2018-09-02T10:43:24.751Z,80.17
2018-09-02T10:45:54.213Z,79.38
2018-09-02T10:48:23.534Z,79.44
2018-09-02T10:50:53.169Z,78.47
2018-09-02T10:53:22.280Z,78.63
2018-09-02T10:55:52.433Z,79.59
2018-09-02T10:58:22.096Z,80.57
2018-09-02T11:00:51.490Z,78.92
2018-09-02T11:03:21.304Z,80.19
2018-09-02T11:05:51.046Z,78.99
2018-09-02T11:08:20.544Z,78.21
2018-09-02T11:10:49.793Z,77.92
2018-09-02T11:13:19.516Z,78.23
2018-09-02T11:15:48.763Z,78.40
2018-09-02T11:18:18.692Z,77.11
2018-09-02T11:20:48.498Z,77.70
2018-09-02T11:23:17.544Z,78.88
2018-09-02T11:25:47.901Z,74.54
2018-09-02T11:28:17.697Z,74.35
2018-09-02T11:30:47.183Z,73.18
2018-09-02T11:33:16.837Z,75.49
2018-09-02T11:35:45.878Z,75.23
2018-09-02T11:38:14.907Z,76.10
2018-09-02T11:40:44.268Z,77.22
2018-09-02T11:43:14.633Z,74.65
2018-09-02T11:45:45.231Z,74.58
2018-09-02T11:48:14.934Z,76.16
2018-09-02T11:50:44.514Z,74.95
2018-09-02T11:53:13.467Z,71.81
2018-09-02T11:55:42.687Z,70.55
2018-09-02T11:58:12.573Z,70.37
2018-09-02T12:00:42.638Z,69.30
2018-09-02T12:03:13.401Z,68.63
2018-09-02T12:05:42.776Z,69.32
2018-09-02T12:08:11.718Z,68.22
2018-09-02T12:10:41.428Z,66.23
2018-09-02T12:13:10.435Z,67.87
2018-09-02T12:15:39.654Z,70.79
2018-09-02T12:18:09.597Z,71.60
2018-09-02T12:20:39.542Z,69.60
2018-09-02T12:23:09.564Z,70.23
2018-09-02T12:25:38.989Z,68.83
2018-09-02T12:28:08.269Z,68.76
2018-09-02T12:30:37.755Z,67.57
2018-09-02T12:33:07.127Z,70.23
2018-09-02T12:35:36.844Z,70.66
2018-09-02T12:38:06.296Z,68.50
2018-09-02T12:40:35.394Z,67.08
2018-09-02T12:43:04.534Z,65.96
2018-09-02T12:45:35.131Z,64.74
2018-09-02T12:48:04.555Z,63.77
2018-09-02T12:50:33.439Z,58.76
2018-09-02T12:53:02.974Z,56.39
2018-09-02T12:55:32.918Z,54.07
2018-09-02T12:58:01.892Z,53.43
2018-09-02T13:00:34.002Z,52.68
2018-09-02T13:03:03.555Z,53.57
2018-09-02T13:05:33.053Z,57.00
2018-09-02T13:08:02.924Z,58.30
2018-09-02T13:10:32.916Z,59.76
2018-09-02T13:13:03.093Z,60.14
2018-09-02T13:15:32.188Z,60.35
2018-09-02T13:18:01.511Z,59.67
2018-09-02T13:20:31.399Z,61.13
2018-09-02T13:23:01.166Z,61.33
2018-09-02T13:25:31.470Z,59.05
2018-09-02T13:28:00.960Z,60.28
2018-09-02T13:30:30.531Z,61.09
2018-09-02T13:32:59.687Z,61.81
2018-09-02T13:35:29.844Z,62.26
2018-09-02T13:37:59.674Z,64.19
2018-09-02T13:40:29.705Z,65.46
2018-09-02T13:42:59.370Z,64.40
2018-09-02T13:45:29.819Z,64.26
2018-09-02T13:47:58.960Z,63.64
2018-09-02T13:50:28.656Z,62.17
2018-09-02T13:52:57.862Z,63.26
2018-09-02T13:55:27.576Z,62.57
2018-09-02T13:57:56.980Z,61.67
2018-09-02T14:00:26.388Z,63.10
2018-09-02T14:02:55.301Z,64.31
2018-09-02T14:05:25.144Z,62.57
2018-09-02T14:07:55.332Z,61.66
2018-09-02T14:10:25.208Z,64.20
2018-09-02T14:12:55.491Z,63.60
2018-09-02T14:15:25.245Z,64.86
2018-09-02T14:17:55.288Z,65.95
2018-09-02T14:20:25.209Z,65.87
2018-09-02T14:22:55.257Z,63.28
2018-09-02T14:25:24.851Z,61.54
2018-09-02T14:27:54.652Z,64.24
2018-09-02T14:30:23.843Z,65.67
2018-09-02T14:32:52.957Z,66.04
2018-09-02T14:35:22.242Z,63.13
2018-09-02T14:40:29.700Z,62.49
2018-09-02T14:43:00.263Z,64.24
2018-09-02T14:45:29.579Z,64.77
2018-09-02T14:47:59.946Z,61.71
2018-09-02T14:50:28.992Z,62.57
2018-09-02T14:52:58.338Z,60.86
2018-09-02T14:55:28.737Z,61.96
2018-09-02T14:57:58.652Z,63.70
2018-09-02T15:00:27.796Z,62.19
2018-09-02T15:02:56.800Z,63.08
2018-09-02T15:05:26.123Z,64.58
2018-09-02T15:07:56.065Z,61.97
2018-09-02T15:10:25.474Z,62.56
2018-09-02T15:12:54.438Z,62.96
2018-09-02T15:15:24.451Z,62.65
2018-09-02T15:17:54.717Z,61.43
2018-09-02T15:20:24.335Z,61.75
2018-09-02T15:22:54.308Z,60.97
2018-09-02T15:25:23.413Z,62.36
2018-09-02T15:27:53.652Z,62.04
2018-09-02T15:30:23.724Z,61.42
2018-09-02T15:32:53.442Z,61.33
2018-09-02T15:35:22.784Z,62.18
2018-09-02T15:37:51.913Z,62.64
2018-09-02T15:40:22.507Z,63.08
2018-09-02T15:42:51.710Z,64.31
2018-09-02T15:45:20.944Z,65.51
2018-09-02T15:47:57.336Z,65.78
2018-09-02T15:50:26.577Z,63.40
2018-09-02T15:52:56.919Z,62.36
2018-09-02T15:55:26.174Z,61.43
2018-09-02T15:57:55.598Z,63.04
2018-09-02T16:00:26.189Z,60.85
2018-09-02T16:02:56.547Z,62.28
2018-09-02T16:05:25.696Z,62.74
2018-09-02T16:07:54.972Z,62.52
2018-09-02T16:10:26.302Z,61.18
2018-09-02T16:12:55.655Z,63.27
2018-09-02T16:15:26.563Z,64.39
2018-09-02T16:17:56.661Z,64.36
2018-09-02T16:20:25.723Z,61.72
2018-09-02T16:22:55.479Z,62.16
2018-09-02T16:25:24.991Z,61.37
2018-09-02T16:27:54.733Z,61.95
2018-09-02T16:30:25.369Z,60.73
2018-09-02T16:32:54.392Z,60.52
2018-09-02T16:35:23.886Z,62.29
2018-09-02T16:37:53.621Z,61.96
2018-09-02T16:40:23.760Z,64.26
2018-09-02T16:42:52.810Z,64.65
2018-09-02T16:45:22.167Z,63.01
2018-09-02T16:47:52.309Z,60.60
2018-09-02T16:50:21.496Z,60.88
2018-09-02T16:52:50.563Z,63.62
2018-09-02T16:55:20.519Z,63.70
2018-09-02T16:57:50.426Z,63.46
2018-09-02T17:00:26.626Z,64.85
2018-09-02T17:02:56.271Z,64.97
2018-09-02T17:05:28.152Z,62.55
2018-09-02T17:07:57.154Z,65.13
2018-09-02T17:10:27.259Z,64.29
2018-09-02T17:12:56.643Z,64.01
2018-09-02T17:15:27.002Z,65.52
2018-09-02T17:17:59.133Z,66.13
2018-09-02T17:20:36.585Z,63.17
2018-09-02T17:23:12.210Z,64.88
2018-09-02T17:25:42.620Z,62.46
2018-09-02T17:28:11.544Z,63.21
2018-09-02T17:30:41.155Z,63.86
2018-09-02T17:33:11.984Z,63.38
2018-09-02T17:35:40.980Z,63.86
2018-09-02T17:38:10.199Z,62.11
2018-09-02T17:40:39.789Z,63.09
2018-09-02T17:43:09.369Z,63.24
2018-09-02T17:45:39.599Z,63.76
2018-09-02T17:48:09.190Z,64.80
2018-09-02T17:50:38.626Z,64.79
2018-09-02T17:53:08.397Z,63.15
2018-09-02T17:55:37.429Z,62.35
2018-09-02T17:58:06.221Z,61.15
2018-09-02T18:00:41.750Z,62.15
2018-09-02T18:03:11.796Z,62.34
2018-09-02T18:05:41.891Z,61.43
2018-09-02T18:08:10.940Z,61.29
2018-09-02T18:10:40.150Z,62.18
2018-09-02T18:13:09.112Z,63.21
2018-09-02T18:15:39.447Z,63.02
2018-09-02T18:18:10.006Z,62.72
2018-09-02T18:20:43.005Z,63.67
2018-09-02T18:23:12.721Z,63.92
2018-09-02T18:25:42.759Z,62.58
2018-09-02T18:28:16.003Z,63.32
2018-09-02T18:30:45.171Z,63.27
2018-09-02T18:33:14.777Z,64.68
2018-09-02T18:35:44.750Z,63.03
2018-09-02T18:38:14.315Z,62.58
2018-09-02T18:40:43.656Z,62.78
2018-09-02T18:43:13.027Z,62.58
2018-09-02T18:45:42.729Z,63.55
2018-09-02T18:48:11.758Z,62.76
2018-09-02T18:50:40.768Z,64.19
2018-09-02T18:53:10.382Z,63.11
2018-09-02T18:55:39.515Z,62.58
2018-09-02T18:58:09.582Z,64.14
2018-09-02T19:00:39.663Z,65.03
2018-09-02T19:03:09.667Z,65.75
2018-09-02T19:05:39.728Z,64.97
2018-09-02T19:08:09.034Z,65.45
2018-09-02T19:10:38.737Z,66.17
2018-09-02T19:15:36.581Z,64.60
2018-09-02T19:18:06.656Z,65.84
2018-09-02T19:20:35.888Z,66.71
2018-09-02T19:23:05.601Z,67.21
2018-09-02T19:25:34.473Z,66.88
2018-09-02T19:28:03.542Z,66.98
2018-09-02T19:30:32.988Z,65.92
2018-09-02T19:33:03.727Z,65.82
2018-09-02T19:35:32.918Z,65.96
2018-09-02T19:38:02.545Z,65.38
2018-09-02T19:40:31.891Z,65.56
2018-09-02T19:43:01.529Z,65.35
2018-09-02T19:45:30.896Z,66.06
2018-09-02T19:48:00.136Z,64.62
2018-09-02T19:50:29.431Z,65.42
2018-09-02T19:52:59.794Z,65.31
2018-09-02T19:55:29.503Z,65.52
2018-09-02T19:57:59.592Z,65.37
2018-09-02T20:00:28.615Z,65.27
2018-09-02T20:02:58.205Z,67.05
2018-09-02T20:05:27.231Z,67.20
2018-09-02T20:07:56.534Z,67.25
2018-09-02T20:10:25.725Z,66.83
2018-09-02T20:12:55.085Z,68.10
2018-09-02T20:15:24.156Z,68.25
2018-09-02T20:17:53.948Z,68.51
2018-09-02T20:20:23.147Z,69.09
2018-09-02T20:22:52.347Z,67.06
2018-09-02T20:25:21.567Z,67.50
2018-09-02T20:27:50.612Z,66.34
2018-09-02T20:30:20.273Z,65.85
2018-09-02T20:32:50.198Z,67.47
2018-09-02T20:35:20.686Z,67.36
2018-09-02T20:37:49.915Z,67.83
2018-09-02T20:40:19.815Z,66.66
2018-09-02T20:42:49.603Z,66.87
2018-09-02T20:45:19.539Z,67.35
2018-09-02T20:47:48.502Z,66.50
2018-09-02T20:50:17.399Z,66.52
2018-09-02T20:52:46.338Z,66.06
2018-09-02T20:55:15.774Z,68.49
2018-09-02T20:57:45.704Z,66.21
2018-09-02T21:00:16.156Z,66.09
2018-09-02T21:02:45.315Z,65.55
2018-09-02T21:05:15.136Z,66.47
2018-09-02T21:07:44.503Z,66.86
2018-09-02T21:10:13.753Z,65.64
2018-09-02T21:12:43.931Z,65.64
2018-09-02T21:15:13.858Z,66.41
2018-09-02T21:17:43.393Z,66.49
2018-09-02T21:20:14.643Z,67.01
2018-09-02T21:22:44.192Z,66.66
2018-09-02T21:25:13.542Z,68.42
2018-09-02T21:27:43.981Z,66.58
2018-09-02T21:30:14.173Z,66.38
2018-09-02T21:32:43.856Z,66.01
2018-09-02T21:35:14.331Z,67.15
2018-09-02T21:37:48.239Z,66.47
2018-09-02T21:43:00.373Z,67.30
2018-09-02T21:45:29.569Z,67.56
2018-09-02T21:47:59.683Z,67.58
2018-09-02T21:50:29.792Z,66.92
2018-09-02T21:53:01.590Z,68.23
2018-09-02T21:55:32.457Z,67.96
2018-09-02T21:58:04.092Z,67.88
2018-09-02T22:00:35.225Z,67.96
2018-09-02T22:03:04.622Z,66.91
2018-09-02T22:05:34.539Z,67.67
2018-09-02T22:08:06.629Z,68.00
2018-09-02T22:10:35.966Z,68.26
2018-09-02T22:13:05.359Z,68.28
2018-09-02T22:15:36.290Z,68.06
2018-09-02T22:18:06.916Z,69.16
2018-09-02T22:20:39.499Z,69.68
2018-09-02T22:23:10.910Z,68.11
2018-09-02T22:25:44.621Z,68.99
2018-09-02T22:28:13.797Z,69.22
2018-09-02T22:30:44.903Z,68.13
2018-09-02T22:33:16.539Z,68.16
2018-09-02T22:35:45.939Z,68.27
2018-09-02T22:38:15.529Z,68.17
2018-09-02T22:40:45.271Z,68.57
2018-09-02T22:43:14.385Z,68.44
2018-09-02T22:45:44.177Z,69.11
2018-09-02T22:48:13.435Z,68.97
2018-09-02T22:50:42.442Z,69.15
2018-09-02T22:53:11.442Z,69.88
2018-09-02T22:55:41.020Z,68.62
2018-09-02T22:58:10.349Z,69.31
2018-09-02T23:00:39.684Z,67.40
2018-09-02T23:03:08.970Z,68.82
2018-09-02T23:05:40.790Z,68.63
2018-09-02T23:08:10.316Z,67.50
2018-09-02T23:10:39.906Z,69.20
2018-09-02T23:13:09.023Z,68.62
2018-09-02T23:15:38.585Z,67.43
2018-09-02T23:18:08.298Z,67.53
2018-09-02T23:20:39.590Z,68.62
2018-09-02T23:23:08.735Z,68.36
2018-09-02T23:25:37.978Z,68.16
2018-09-02T23:28:09.966Z,67.39
2018-09-02T23:30:38.935Z,68.19
2018-09-02T23:33:08.589Z,69.10
2018-09-02T23:35:38.121Z,69.55
2018-09-02T23:38:07.597Z,69.51
2018-09-02T23:40:36.589Z,68.61
2018-09-02T23:43:06.350Z,68.61
2018-09-02T23:45:35.389Z,69.38
2018-09-02T23:48:04.613Z,68.00
2018-09-02T23:50:34.040Z,68.57
2018-09-02T23:53:03.880Z,68.74
2018-09-02T23:55:33.116Z,68.81
2018-09-02T23:58:02.090Z,69.53
